Mitchel — WDE7728 — position and weather

sailwx.info

Track history (hours):
 
Tides and Currents Weather Stations Pressure Air Temp Water Temp Dewpoint Dewpoint Depression Visibility Wind Speed Wind Dir Waves Ship Positions

Mitchel

Owner: AMERICAN TUGS INC., SAN JUAN, PR. More information available from US FCC via Universal Licensing System and Coast Guard Vessel Documentation Center.

Last reported at 2015-Nov-04 22:31 UTC. Time now 2016-Feb-09 07:47 UTC.
Position N 18°14' W 064°54'.
Warning: this ship's position is months out of date.

Length 27 m; draft 3.1 m.

Type: Tug. MMSI: 367346890.

Date/timePositionNaut miles runAvg speedWind from/ knotsBaromVisibWave heightAir tempDewpointWater temp
2015-Nov-04 22:31N 18°14' W 064°54'3 0.1
2015-Nov-03 11:33N 18°17' W 064°53'3 2.7
2015-Nov-03 10:33N 18°16' W 064°51'3 2.8
2015-Nov-03 09:33N 18°15' W 064°48'94 4.5
2015-Nov-02 12:27N 17°35' W 063°18'73 4.9
2015-Nov-01 21:33N 16°47' W 062°21'5 5.3
2015-Nov-01 20:33N 16°44' W 062°16'1 0.6
2015-Nov-01 19:10N 16°43' W 062°16'5 0.5
2015-Nov-01 09:21N 16°39' W 062°13'4 4.4
2015-Nov-01 08:33N 16°36' W 062°11'4 4.2
2015-Nov-01 07:33N 16°32' W 062°10'4 4.3
2015-Nov-01 06:33N 16°28' W 062°08'106 4.6
2015-Oct-31 07:23N 14°48' W 061°31'5 5.5
2015-Oct-31 06:32N 14°44' W 061°30'6 5.8
2015-Oct-31 05:33N 14°38' W 061°28'6 6.1
2015-Oct-31 04:33N 14°33' W 061°26'6 6.1
2015-Oct-31 03:33N 14°27' W 061°24'6 6.1
2015-Oct-31 02:34N 14°21' W 061°22'6 5.7
2015-Oct-31 01:33N 14°16' W 061°20'6 5.8
2015-Oct-31 00:33N 14°10' W 061°18'13 5.7
2015-Oct-30 22:22N 13°58' W 061°13'9 0.3
2015-Oct-29 09:31N 13°51' W 061°07'7 7.8
2015-Oct-29 08:33N 13°58' W 061°04'3 3.4
2015-Oct-29 07:33N 13°59' W 061°01'  
Track history (hours):
 
Tides and Currents Weather Stations Pressure Air Temp Water Temp Dewpoint Dewpoint Depression Visibility Wind Speed Wind Dir Waves Ship Positions

Mitchel

Owner: AMERICAN TUGS INC., SAN JUAN, PR. More information available from US FCC via Universal Licensing System and Coast Guard Vessel Documentation Center.

Last reported at 2015-Nov-04 22:31 UTC. Time now 2016-Feb-09 07:47 UTC.
Position N 18°14' W 064°54'.
Warning: this ship's position is months out of date.

Length 27 m; draft 3.1 m.

Type: Tug. MMSI: 367346890.

Date/timePositionNaut miles runAvg speedWind from/ knotsBaromVisibWave heightAir tempDewpointWater temp
2015-Nov-04 22:31N 18°14' W 064°54'3 0.1
2015-Nov-03 11:33N 18°17' W 064°53'3 2.7
2015-Nov-03 10:33N 18°16' W 064°51'3 2.8
2015-Nov-03 09:33N 18°15' W 064°48'94 4.5
2015-Nov-02 12:27N 17°35' W 063°18'73 4.9
2015-Nov-01 21:33N 16°47' W 062°21'5 5.3
2015-Nov-01 20:33N 16°44' W 062°16'1 0.6
2015-Nov-01 19:10N 16°43' W 062°16'5 0.5
2015-Nov-01 09:21N 16°39' W 062°13'4 4.4
2015-Nov-01 08:33N 16°36' W 062°11'4 4.2
2015-Nov-01 07:33N 16°32' W 062°10'4 4.3
2015-Nov-01 06:33N 16°28' W 062°08'106 4.6
2015-Oct-31 07:23N 14°48' W 061°31'5 5.5
2015-Oct-31 06:32N 14°44' W 061°30'6 5.8
2015-Oct-31 05:33N 14°38' W 061°28'6 6.1
2015-Oct-31 04:33N 14°33' W 061°26'6 6.1
2015-Oct-31 03:33N 14°27' W 061°24'6 6.1
2015-Oct-31 02:34N 14°21' W 061°22'6 5.7
2015-Oct-31 01:33N 14°16' W 061°20'6 5.8
2015-Oct-31 00:33N 14°10' W 061°18'13 5.7
2015-Oct-30 22:22N 13°58' W 061°13'9 0.3
2015-Oct-29 09:31N 13°51' W 061°07'7 7.8
2015-Oct-29 08:33N 13°58' W 061°04'3 3.4
2015-Oct-29 07:33N 13°59' W 061°01'  

Dump ship's entire track history